createdAt,value
2022-10-08T00:01:49.432Z,100.00
2022-10-08T00:04:17.689Z,100.00
2022-10-08T00:06:45.964Z,100.00
2022-10-08T00:09:14.199Z,100.00
2022-10-08T00:11:43.345Z,100.00
2022-10-08T00:14:11.438Z,100.00
2022-10-08T00:16:41.326Z,100.00
2022-10-08T00:19:14.449Z,100.00
2022-10-08T00:21:44.950Z,100.00
2022-10-08T00:24:16.897Z,100.00
2022-10-08T00:26:45.765Z,100.00
2022-10-08T00:29:17.021Z,100.00
2022-10-08T00:31:47.384Z,100.00
2022-10-08T00:34:21.095Z,100.00
2022-10-08T00:36:54.692Z,100.00
2022-10-08T00:39:24.904Z,100.00
2022-10-08T00:41:55.673Z,100.00
2022-10-08T00:44:56.151Z,100.00
2022-10-08T00:47:33.474Z,100.00
2022-10-08T00:50:26.921Z,100.00
2022-10-08T00:52:59.319Z,100.00
2022-10-08T00:55:28.383Z,100.00
2022-10-08T00:58:01.356Z,100.00
2022-10-08T01:00:33.410Z,100.00
2022-10-08T01:03:03.947Z,100.00
2022-10-08T01:06:06.650Z,100.00
2022-10-08T01:08:46.119Z,100.00
2022-10-08T01:11:30.072Z,100.00
2022-10-08T01:14:23.074Z,100.00
2022-10-08T01:17:11.579Z,100.00
2022-10-08T01:19:55.051Z,100.00
2022-10-08T01:22:38.854Z,100.00
2022-10-08T01:25:34.137Z,100.00
2022-10-08T01:28:21.072Z,100.00
2022-10-08T01:30:56.569Z,100.00
2022-10-08T01:33:51.046Z,100.00
2022-10-08T01:36:21.834Z,100.00
2022-10-08T01:39:00.727Z,100.00
2022-10-08T01:41:31.701Z,100.00
2022-10-08T01:44:09.310Z,100.00
2022-10-08T01:46:41.279Z,100.00
2022-10-08T01:49:17.589Z,100.00
2022-10-08T01:51:54.421Z,100.00
2022-10-08T01:54:28.815Z,100.00
2022-10-08T01:57:01.399Z,100.00
2022-10-08T01:59:35.087Z,100.00
2022-10-08T02:02:14.598Z,100.00
2022-10-08T02:04:43.103Z,100.00
2022-10-08T02:07:14.665Z,100.00
2022-10-08T02:09:45.485Z,100.00
2022-10-08T02:12:14.641Z,100.00
2022-10-08T02:14:54.456Z,100.00
2022-10-08T02:17:29.859Z,100.00
2022-10-08T02:20:02.674Z,100.00
2022-10-08T02:22:38.351Z,100.00
2022-10-08T02:25:24.497Z,100.00
2022-10-08T02:28:06.714Z,100.00
2022-10-08T02:30:52.624Z,100.00
2022-10-08T02:33:36.394Z,100.00
2022-10-08T02:38:59.139Z,100.00
2022-10-08T02:41:33.603Z,100.00
2022-10-08T02:44:06.366Z,100.00
2022-10-08T02:46:44.246Z,100.00
2022-10-08T02:49:16.943Z,100.00
2022-10-08T02:51:50.146Z,100.00
2022-10-08T02:54:21.482Z,100.00
2022-10-08T02:57:09.348Z,100.00
2022-10-08T02:59:38.192Z,100.00
2022-10-08T03:02:06.826Z,100.00
2022-10-08T03:04:53.124Z,100.00
2022-10-08T03:07:24.291Z,100.00
2022-10-08T03:09:55.424Z,100.00
2022-10-08T03:12:25.069Z,100.00
2022-10-08T03:14:53.280Z,100.00
2022-10-08T03:17:30.937Z,100.00
2022-10-08T03:20:03.271Z,100.00
2022-10-08T03:22:32.068Z,100.00
2022-10-08T03:25:00.901Z,100.00
2022-10-08T03:27:29.358Z,100.00
2022-10-08T03:29:57.574Z,100.00
2022-10-08T03:32:27.228Z,100.00
2022-10-08T03:34:57.395Z,100.00
2022-10-08T03:37:25.558Z,100.00
2022-10-08T03:39:53.727Z,100.00
2022-10-08T03:42:21.989Z,100.00
2022-10-08T03:44:53.451Z,100.00
2022-10-08T03:47:28.502Z,100.00
2022-10-08T03:49:56.780Z,100.00
2022-10-08T03:52:35.723Z,100.00
2022-10-08T03:55:36.033Z,100.00
2022-10-08T03:58:04.197Z,100.00
2022-10-08T04:00:32.375Z,100.00
2022-10-08T04:03:00.699Z,100.00
2022-10-08T04:05:29.125Z,100.00
2022-10-08T04:08:41.508Z,100.00
2022-10-08T04:11:13.623Z,100.00
2022-10-08T04:13:42.554Z,100.00
2022-10-08T04:16:16.586Z,100.00
2022-10-08T04:18:50.997Z,100.00
2022-10-08T04:21:19.719Z,100.00
2022-10-08T04:23:51.628Z,100.00
2022-10-08T04:26:19.823Z,100.00
2022-10-08T04:28:50.843Z,100.00
2022-10-08T04:31:21.999Z,100.00
2022-10-08T04:33:51.819Z,100.00
2022-10-08T04:36:24.858Z,100.00
2022-10-08T04:38:53.218Z,100.00
2022-10-08T04:41:24.388Z,100.00
2022-10-08T04:43:53.667Z,100.00
2022-10-08T04:46:22.743Z,100.00
2022-10-08T04:48:53.872Z,100.00
2022-10-08T04:51:24.647Z,100.00
2022-10-08T04:53:57.343Z,100.00
2022-10-08T04:56:28.744Z,100.00
2022-10-08T04:58:59.741Z,100.00
2022-10-08T05:01:29.304Z,100.00
2022-10-08T05:03:59.349Z,100.00
2022-10-08T05:06:34.690Z,100.00
2022-10-08T05:09:04.251Z,100.00
2022-10-08T05:11:33.122Z,100.00
2022-10-08T05:14:02.808Z,100.00
2022-10-08T05:16:31.686Z,100.00
2022-10-08T05:19:02.543Z,100.00
2022-10-08T05:21:32.151Z,100.00
2022-10-08T05:24:07.327Z,100.00
2022-10-08T05:29:26.370Z,100.00
2022-10-08T05:31:57.307Z,100.00
2022-10-08T05:34:26.084Z,100.00
2022-10-08T05:36:54.498Z,100.00
2022-10-08T05:39:25.101Z,100.00
2022-10-08T05:41:54.407Z,100.00
2022-10-08T05:44:22.898Z,100.00
2022-10-08T05:46:51.060Z,100.00
2022-10-08T05:49:21.871Z,100.00
2022-10-08T05:51:50.983Z,100.00
2022-10-08T05:54:20.044Z,100.00
2022-10-08T05:56:48.456Z,100.00
2022-10-08T05:59:21.209Z,100.00
2022-10-08T06:01:50.604Z,100.00
2022-10-08T06:04:19.419Z,100.00
2022-10-08T06:06:47.925Z,100.00
2022-10-08T06:09:19.087Z,100.00
2022-10-08T06:11:48.682Z,100.00
2022-10-08T06:14:17.860Z,100.00
2022-10-08T06:16:46.724Z,100.00
2022-10-08T06:19:15.104Z,100.00
2022-10-08T06:21:43.731Z,100.00
2022-10-08T06:24:14.636Z,100.00
2022-10-08T06:26:44.736Z,100.00
2022-10-08T06:29:18.298Z,100.00
2022-10-08T06:31:47.275Z,100.00
2022-10-08T06:34:16.084Z,100.00
2022-10-08T06:36:45.858Z,100.00
2022-10-08T06:39:15.730Z,100.00
2022-10-08T06:41:44.403Z,100.00
2022-10-08T06:44:14.716Z,100.00
2022-10-08T06:46:43.326Z,100.00
2022-10-08T06:49:12.823Z,100.00
2022-10-08T06:51:41.298Z,100.00
2022-10-08T06:54:09.509Z,100.00
2022-10-08T06:56:38.719Z,100.00
2022-10-08T06:59:08.220Z,100.00
2022-10-08T07:01:37.746Z,100.00
2022-10-08T07:04:07.078Z,100.00
2022-10-08T07:06:37.416Z,100.00
2022-10-08T07:09:07.257Z,100.00
2022-10-08T07:11:35.543Z,100.00
2022-10-08T07:14:04.291Z,100.00
2022-10-08T07:16:33.595Z,100.00
2022-10-08T07:19:01.964Z,100.00
2022-10-08T07:21:31.160Z,100.00
2022-10-08T07:24:03.339Z,100.00
2022-10-08T07:26:35.093Z,100.00
2022-10-08T07:29:07.599Z,100.00
2022-10-08T07:31:49.750Z,100.00
2022-10-08T07:34:18.122Z,100.00
2022-10-08T07:36:46.304Z,100.00
2022-10-08T07:39:24.826Z,100.00
2022-10-08T07:41:53.594Z,100.00
2022-10-08T07:44:21.804Z,100.00
2022-10-08T07:46:52.084Z,100.00
2022-10-08T07:49:21.085Z,100.00
2022-10-08T07:51:49.491Z,100.00
2022-10-08T07:54:19.456Z,100.00
2022-10-08T07:56:48.137Z,100.00
2022-10-08T07:59:21.078Z,100.00
2022-10-08T08:01:49.345Z,100.00
2022-10-08T08:04:22.143Z,100.00
2022-10-08T08:09:52.303Z,100.00
2022-10-08T08:12:20.659Z,100.00
2022-10-08T08:14:49.001Z,100.00
2022-10-08T08:17:17.224Z,100.00
2022-10-08T08:19:45.371Z,100.00
2022-10-08T08:22:13.564Z,100.00
2022-10-08T08:24:41.687Z,100.00
2022-10-08T08:27:10.030Z,100.00
2022-10-08T08:29:38.135Z,100.00
2022-10-08T08:32:07.465Z,100.00
2022-10-08T08:34:35.691Z,100.00
2022-10-08T08:37:04.080Z,100.00
2022-10-08T08:39:34.185Z,100.00
2022-10-08T08:42:34.949Z,100.00
2022-10-08T08:45:44.828Z,100.00
2022-10-08T08:48:25.064Z,100.00
2022-10-08T08:50:59.625Z,100.00
2022-10-08T08:53:33.840Z,100.00
2022-10-08T08:56:24.439Z,100.00
2022-10-08T08:59:00.740Z,100.00
2022-10-08T09:01:43.245Z,100.00
2022-10-08T09:04:45.487Z,100.00
2022-10-08T09:07:19.407Z,100.00
2022-10-08T09:09:52.063Z,100.00
2022-10-08T09:12:41.969Z,100.00
2022-10-08T09:15:23.818Z,100.00
2022-10-08T09:17:53.066Z,100.00
2022-10-08T09:20:39.309Z,100.00
2022-10-08T09:23:29.762Z,100.00
2022-10-08T09:26:03.521Z,100.00
2022-10-08T09:28:43.087Z,100.00
2022-10-08T09:31:27.981Z,100.00
2022-10-08T09:33:59.322Z,100.00
2022-10-08T09:36:54.224Z,100.00
2022-10-08T09:42:17.985Z,100.00
2022-10-08T09:45:22.371Z,100.00
2022-10-08T09:48:37.719Z,100.00
2022-10-08T09:51:18.274Z,100.00
2022-10-08T09:53:54.025Z,100.00
2022-10-08T09:56:28.430Z,100.00
2022-10-08T09:59:03.385Z,100.00
2022-10-08T10:01:37.355Z,100.00
2022-10-08T10:04:57.574Z,99.62
2022-10-08T10:07:44.737Z,97.71
2022-10-08T10:10:40.764Z,99.76
2022-10-08T10:13:17.623Z,99.89
2022-10-08T10:15:53.267Z,97.52
2022-10-08T10:18:29.000Z,97.86
2022-10-08T10:21:01.475Z,96.40
2022-10-08T10:23:41.727Z,91.93
2022-10-08T10:26:13.731Z,95.60
2022-10-08T10:28:52.540Z,91.06
2022-10-08T10:31:33.909Z,89.59
2022-10-08T10:34:27.543Z,85.34
2022-10-08T10:36:58.898Z,88.05
2022-10-08T10:39:36.209Z,89.41
2022-10-08T10:42:25.829Z,85.02
2022-10-08T10:44:55.248Z,84.87
2022-10-08T10:47:33.879Z,84.40
2022-10-08T10:50:02.745Z,86.78
2022-10-08T10:53:03.152Z,79.62
2022-10-08T10:55:54.698Z,79.87
2022-10-08T10:58:30.995Z,80.03
2022-10-08T11:01:41.779Z,78.41
2022-10-08T11:04:47.330Z,78.53
2022-10-08T11:07:40.726Z,76.76
2022-10-08T11:10:42.614Z,74.48
2022-10-08T11:13:55.196Z,72.01
2022-10-08T11:16:45.954Z,70.93
2022-10-08T11:19:42.317Z,75.52
2022-10-08T11:22:33.311Z,72.55
2022-10-08T11:25:44.679Z,70.22
2022-10-08T11:28:28.086Z,69.72
2022-10-08T11:34:03.994Z,66.99
2022-10-08T11:36:46.536Z,68.38
2022-10-08T11:39:21.586Z,66.54
2022-10-08T11:41:59.794Z,66.07
2022-10-08T11:44:37.507Z,67.71
2022-10-08T11:47:47.685Z,65.97
2022-10-08T11:50:23.991Z,64.48
2022-10-08T11:52:54.096Z,62.55
2022-10-08T11:55:29.342Z,64.63
2022-10-08T11:58:08.117Z,64.18
2022-10-08T12:00:43.378Z,63.24
2022-10-08T12:03:28.327Z,61.79
2022-10-08T12:06:00.813Z,59.10
2022-10-08T12:09:04.564Z,61.30
2022-10-08T12:11:32.647Z,60.21
2022-10-08T12:14:13.057Z,59.80
2022-10-08T12:16:49.943Z,58.03
2022-10-08T12:19:42.308Z,58.91
2022-10-08T12:22:16.739Z,58.11
2022-10-08T12:24:49.619Z,58.50
2022-10-08T12:27:18.747Z,56.39
2022-10-08T12:30:12.171Z,54.69
2022-10-08T12:32:40.228Z,54.44
2022-10-08T12:35:58.461Z,52.68
2022-10-08T12:38:51.303Z,51.57
2022-10-08T12:41:39.249Z,50.95
2022-10-08T12:44:28.839Z,49.45
2022-10-08T12:47:29.912Z,48.84
2022-10-08T12:50:18.982Z,47.33
2022-10-08T12:52:47.287Z,44.05
2022-10-08T12:55:20.027Z,45.11
2022-10-08T12:57:50.442Z,44.48
2022-10-08T13:00:34.151Z,43.46
2022-10-08T13:03:06.395Z,42.28
2022-10-08T13:05:55.564Z,40.25
2022-10-08T13:08:40.548Z,37.18
2022-10-08T13:11:14.890Z,37.75
2022-10-08T13:13:51.078Z,38.20
2022-10-08T13:16:22.324Z,38.39
2022-10-08T13:18:53.851Z,38.23
2022-10-08T13:21:31.195Z,38.17
2022-10-08T13:24:04.820Z,37.16
2022-10-08T13:26:52.228Z,37.00
2022-10-08T13:29:35.438Z,36.41
2022-10-08T13:32:12.466Z,36.72
2022-10-08T13:34:41.106Z,36.78
2022-10-08T13:37:22.552Z,36.22
2022-10-08T13:40:05.768Z,36.20
2022-10-08T13:42:55.539Z,35.52
2022-10-08T13:45:38.121Z,35.49
2022-10-08T13:48:12.100Z,36.10
2022-10-08T13:50:50.957Z,36.20
2022-10-08T13:53:33.430Z,35.40
2022-10-08T13:56:24.452Z,35.90
2022-10-08T13:59:13.802Z,35.75
2022-10-08T14:01:51.056Z,36.17
2022-10-08T14:04:19.598Z,36.02
2022-10-08T14:06:53.917Z,36.18
2022-10-08T14:09:27.316Z,36.30
2022-10-08T14:11:59.468Z,36.91
2022-10-08T14:14:28.622Z,37.01
2022-10-08T14:16:56.828Z,36.86
2022-10-08T14:19:34.353Z,37.00
2022-10-08T14:22:02.611Z,38.06
2022-10-08T14:24:43.008Z,38.14
2022-10-08T14:27:11.659Z,38.40
2022-10-08T14:29:40.834Z,38.92
2022-10-08T14:32:10.938Z,39.47
2022-10-08T14:34:39.440Z,39.71
2022-10-08T14:37:07.740Z,39.99
2022-10-08T14:39:36.500Z,40.43
2022-10-08T14:42:06.851Z,40.94
2022-10-08T14:44:34.982Z,40.83
2022-10-08T14:47:11.105Z,41.16
2022-10-08T14:49:39.308Z,41.73
2022-10-08T14:52:17.992Z,42.24
2022-10-08T14:54:49.111Z,42.86
2022-10-08T14:57:17.364Z,43.49
2022-10-08T14:59:45.539Z,43.82
2022-10-08T15:05:02.244Z,44.71
2022-10-08T15:07:41.699Z,45.03
2022-10-08T15:10:10.210Z,45.37
2022-10-08T15:12:38.640Z,45.76
2022-10-08T15:15:07.377Z,46.09
2022-10-08T15:17:35.581Z,46.55
2022-10-08T15:20:04.163Z,47.04
2022-10-08T15:22:32.448Z,47.49
2022-10-08T15:25:00.718Z,47.95
2022-10-08T15:27:28.933Z,48.41
2022-10-08T15:29:57.261Z,49.08
2022-10-08T15:32:29.651Z,49.67
2022-10-08T15:35:09.887Z,50.21
2022-10-08T15:37:38.650Z,50.99
2022-10-08T15:40:07.477Z,51.55
2022-10-08T15:42:42.434Z,52.34
2022-10-08T15:45:10.571Z,53.21
2022-10-08T15:47:40.716Z,53.44
2022-10-08T15:50:09.028Z,54.27
2022-10-08T15:52:37.253Z,55.59
2022-10-08T15:55:11.079Z,56.36
2022-10-08T15:57:39.431Z,56.74
2022-10-08T16:00:10.392Z,58.06
2022-10-08T16:02:55.704Z,59.36
2022-10-08T16:05:24.065Z,60.37
2022-10-08T16:07:52.280Z,60.98
2022-10-08T16:10:20.358Z,62.66
2022-10-08T16:12:48.626Z,63.22
2022-10-08T16:17:59.398Z,66.17
2022-10-08T16:20:27.767Z,67.48
2022-10-08T16:22:57.166Z,69.03
2022-10-08T16:25:25.412Z,68.22
2022-10-08T16:27:53.587Z,69.39
2022-10-08T16:30:21.774Z,70.66
2022-10-08T16:32:50.676Z,71.82
2022-10-08T16:35:19.342Z,71.55
2022-10-08T16:37:47.521Z,72.59
2022-10-08T16:40:16.099Z,72.57
2022-10-08T16:42:44.740Z,73.06
2022-10-08T16:45:13.060Z,73.96
2022-10-08T16:47:41.288Z,74.47
2022-10-08T16:50:09.824Z,75.44
2022-10-08T16:52:38.087Z,75.82
2022-10-08T16:55:07.911Z,77.20
2022-10-08T16:57:36.169Z,75.98
2022-10-08T17:00:05.216Z,79.12
2022-10-08T17:02:34.010Z,83.76
2022-10-08T17:05:02.345Z,81.77
2022-10-08T17:07:30.581Z,81.19
2022-10-08T17:09:58.993Z,82.19
2022-10-08T17:12:27.381Z,86.16
2022-10-08T17:17:41.501Z,88.01
2022-10-08T17:23:00.512Z,86.56
2022-10-08T17:25:28.816Z,85.93
2022-10-08T17:27:57.092Z,87.33
2022-10-08T17:30:27.301Z,86.94
2022-10-08T17:32:55.497Z,86.40
2022-10-08T17:35:23.600Z,86.65
2022-10-08T17:37:51.708Z,89.07
2022-10-08T17:40:20.103Z,91.56
2022-10-08T17:42:48.627Z,90.44
2022-10-08T17:45:17.147Z,91.00
2022-10-08T17:47:45.365Z,93.36
2022-10-08T17:50:14.232Z,94.79
2022-10-08T17:52:42.400Z,97.66
2022-10-08T17:55:22.732Z,99.61
2022-10-08T17:57:50.975Z,99.74
2022-10-08T18:00:19.145Z,99.53
2022-10-08T18:02:47.975Z,99.98
2022-10-08T18:05:16.453Z,100.00
2022-10-08T18:07:44.653Z,99.96
2022-10-08T18:10:12.975Z,100.00
2022-10-08T18:12:41.215Z,100.00
2022-10-08T18:15:11.175Z,100.00
2022-10-08T18:17:40.020Z,100.00
2022-10-08T18:20:08.548Z,100.00
2022-10-08T18:22:37.054Z,100.00
2022-10-08T18:25:05.815Z,100.00
2022-10-08T18:27:34.093Z,100.00
2022-10-08T18:30:02.225Z,100.00
2022-10-08T18:32:30.512Z,100.00
2022-10-08T18:34:58.694Z,100.00
2022-10-08T18:37:26.808Z,100.00
2022-10-08T18:39:54.943Z,100.00
2022-10-08T18:42:23.207Z,100.00
2022-10-08T18:44:51.484Z,100.00
2022-10-08T18:47:19.600Z,100.00
2022-10-08T18:49:47.638Z,100.00
2022-10-08T18:52:20.523Z,100.00
2022-10-08T18:54:50.315Z,100.00
2022-10-08T18:57:18.681Z,100.00
2022-10-08T18:59:46.897Z,100.00
2022-10-08T19:02:15.070Z,100.00
2022-10-08T19:04:43.394Z,100.00
2022-10-08T19:07:11.518Z,100.00
2022-10-08T19:09:39.711Z,100.00
2022-10-08T19:12:08.330Z,100.00
2022-10-08T19:14:36.658Z,100.00
2022-10-08T19:17:04.850Z,100.00
2022-10-08T19:19:33.044Z,100.00
2022-10-08T19:22:01.785Z,100.00
2022-10-08T19:24:30.118Z,100.00
2022-10-08T19:26:58.396Z,100.00
2022-10-08T19:29:29.558Z,100.00
2022-10-08T19:31:57.980Z,100.00
2022-10-08T19:34:27.867Z,100.00
2022-10-08T19:36:56.733Z,100.00
2022-10-08T19:39:28.275Z,100.00
2022-10-08T19:42:03.479Z,100.00
2022-10-08T19:44:36.081Z,100.00
2022-10-08T19:47:04.744Z,100.00
2022-10-08T19:49:32.912Z,100.00
2022-10-08T19:52:03.872Z,100.00
2022-10-08T19:54:32.045Z,100.00
2022-10-08T19:57:00.280Z,100.00
2022-10-08T19:59:28.598Z,100.00
2022-10-08T20:01:57.186Z,100.00
2022-10-08T20:04:25.377Z,100.00
2022-10-08T20:06:53.901Z,100.00
2022-10-08T20:09:22.307Z,100.00
2022-10-08T20:11:50.553Z,100.00
2022-10-08T20:14:18.848Z,100.00
2022-10-08T20:16:47.246Z,100.00
2022-10-08T20:19:19.381Z,100.00
2022-10-08T20:21:48.777Z,100.00
2022-10-08T20:24:18.211Z,100.00
2022-10-08T20:26:48.955Z,100.00
2022-10-08T20:29:20.830Z,100.00
2022-10-08T20:31:55.125Z,100.00
2022-10-08T20:34:31.115Z,100.00
2022-10-08T20:37:01.693Z,100.00
2022-10-08T20:39:30.476Z,100.00
2022-10-08T20:41:59.786Z,100.00
2022-10-08T20:44:27.975Z,100.00
2022-10-08T20:46:56.413Z,100.00
2022-10-08T20:49:25.025Z,100.00
2022-10-08T20:51:53.294Z,100.00
2022-10-08T20:54:21.541Z,100.00
2022-10-08T20:56:49.762Z,100.00
2022-10-08T20:59:19.603Z,100.00
2022-10-08T21:01:49.886Z,100.00
2022-10-08T21:04:19.972Z,100.00
2022-10-08T21:06:50.380Z,100.00
2022-10-08T21:09:20.051Z,100.00
2022-10-08T21:11:48.404Z,100.00
2022-10-08T21:14:19.597Z,100.00
2022-10-08T21:16:47.858Z,100.00
2022-10-08T21:19:27.393Z,100.00
2022-10-08T21:21:55.544Z,100.00
2022-10-08T21:24:37.664Z,100.00
2022-10-08T21:27:05.859Z,100.00
2022-10-08T21:29:34.072Z,100.00
2022-10-08T21:32:02.309Z,100.00
2022-10-08T21:34:30.591Z,100.00
2022-10-08T21:36:58.760Z,100.00
2022-10-08T21:39:27.122Z,100.00
2022-10-08T21:41:55.502Z,100.00
2022-10-08T21:44:26.481Z,100.00
2022-10-08T21:46:54.749Z,100.00
2022-10-08T21:49:24.262Z,100.00
2022-10-08T21:51:52.642Z,100.00
2022-10-08T21:54:20.961Z,100.00
2022-10-08T21:56:51.129Z,100.00
2022-10-08T21:59:20.571Z,100.00
2022-10-08T22:01:51.446Z,100.00
2022-10-08T22:04:23.456Z,100.00
2022-10-08T22:06:54.553Z,100.00
2022-10-08T22:09:25.985Z,100.00
2022-10-08T22:11:55.728Z,100.00
2022-10-08T22:14:24.480Z,100.00
2022-10-08T22:16:52.907Z,100.00
2022-10-08T22:19:21.368Z,100.00
2022-10-08T22:21:49.614Z,100.00
2022-10-08T22:24:17.820Z,100.00
2022-10-08T22:26:49.090Z,100.00
2022-10-08T22:29:17.549Z,100.00
2022-10-08T22:31:47.512Z,100.00
2022-10-08T22:34:15.730Z,100.00
2022-10-08T22:36:45.483Z,100.00
2022-10-08T22:39:13.960Z,100.00
2022-10-08T22:41:42.223Z,100.00
2022-10-08T22:44:10.494Z,100.00
2022-10-08T22:46:39.617Z,100.00
2022-10-08T22:49:12.270Z,100.00
2022-10-08T22:51:41.087Z,100.00
2022-10-08T22:54:11.597Z,100.00
2022-10-08T22:56:39.800Z,100.00
2022-10-08T22:59:08.033Z,100.00
2022-10-08T23:01:37.883Z,100.00
2022-10-08T23:04:06.225Z,100.00
2022-10-08T23:06:35.148Z,100.00
2022-10-08T23:09:06.775Z,100.00
2022-10-08T23:11:35.719Z,100.00
2022-10-08T23:14:04.591Z,100.00
2022-10-08T23:16:34.016Z,100.00
2022-10-08T23:19:06.022Z,100.00
2022-10-08T23:21:36.650Z,100.00
2022-10-08T23:24:05.695Z,100.00
2022-10-08T23:26:36.059Z,100.00
2022-10-08T23:29:04.866Z,100.00
2022-10-08T23:31:36.088Z,100.00
2022-10-08T23:34:05.880Z,100.00
2022-10-08T23:36:39.419Z,100.00
2022-10-08T23:39:08.949Z,100.00
2022-10-08T23:41:37.699Z,100.00
2022-10-08T23:44:06.219Z,100.00
2022-10-08T23:46:34.646Z,100.00
2022-10-08T23:49:02.981Z,100.00
2022-10-08T23:51:33.952Z,100.00
2022-10-08T23:54:02.195Z,100.00
2022-10-08T23:56:32.061Z,100.00
2022-10-08T23:59:00.243Z,100.00
